VTPH/HHQ METAR and TAF weather

Enter ICAO airport designator
Station Type Date Time Source
VTPH METAR 2019/10/22 11:00 UTC NOAA

VTPH 221100Z 16004KT 120V200 7000 FEW030 30/25 Q1006 NOSIG


Station Type Date Time Source
VTPH Decoded METAR 2019/10/22 11:00 UTC NOAA

Hua Hin, Thailand (VTPH) 12-35N 099-57E 6M
Oct 22, 2019 - 07:00 AM EDT / 2019.10.22 1100 UTC
Wind: from the SSE (160 degrees) at 5 MPH (4 KT) (direction variable):0
Visibility: 4 mile(s):0
Sky conditions: mostly clear
Temperature: 86 F (30 C)
Heat index: 96.8 F (36.0 C):1
Dew Point: 77 F (25 C)
Relative Humidity: 74%
Pressure (altimeter): 29.71 in. Hg (1006 hPa)
ob: VTPH 221100Z 16004KT 120V200 7000 FEW030 30/25 Q1006 NOSIG
cycle: 11

Station Type Date Time Source
VTPH TAF 2019/10/22 12:00 UTC NOAA

TAF VTPH 221100Z 2212/2312 00000KT 9999 FEW030
BECMG 2302/2304 08008KT

Example: see airport list